Terminal Aerodrome Forecast
Issued by NWS Sterling, VA

Current Version | Previous Version | Graphics & Text | Print | Product List | Glossary On
Versions: 1 2 3 4 5 6 7 8 9 10 11 12 13 14 15 16 17 18 19 20 21 22 23 24 25 26 27 28
000
FTUS41 KLWX 170858 AAB
TAFIAD
TAF AMD
KIAD 170858Z 1709/1812 33004KT P6SM SCT250
     FM171400 10005KT P6SM SCT250
     FM172000 15007KT P6SM OVC015
     FM172100 15007KT 2SM -SN OVC008
     FM172200 15007KT 1SM -SNPL OVC008
     FM180300 19004KT P6SM OVC015
     FM180600 VRB03KT P6SM BKN025
     FM180900 28005KT P6SM SCT250=

USA.gov is the U.S. government's official web portal to all federal, state and local government web resources and services.